Sanderford — AEAL — position and weather

sailwx.info

Track history (hours):
 
Tides and Currents Weather Stations Pressure Air Temp Water Temp Dewpoint Dewpoint Depression Visibility Wind Speed Wind Dir Waves Ship Positions

Sanderford

Last reported at 2018-May-18 10:08 UTC. Time now 2018-May-23 01:35 UTC.
Position N 30°01' W 090°47'.

Length 17 m.

Type: Towing. MMSI: 369970377.

Date/timePositionNaut miles runAvg speedWind from/ knotsBaromVisibWave heightAir tempDewpointWater temp
2018-May-18 10:08N 30°01' W 090°47'0 0.1
2018-May-18 09:54N 30°01' W 090°47'0 0.0
2018-May-18 09:27N 30°01' W 090°47'0 0.0
2018-May-18 09:00N 30°01' W 090°47'0 0.1
2018-May-18 08:21N 30°01' W 090°46'  
2018-May-09 17:31N 32°01' W 091°04'110.2
2018-May-09 17:26N 32°02' W 091°04'6 8.4
2018-May-09 16:44N 32°08' W 091°06'210.5
2018-May-09 16:30N 32°07' W 091°04'4 8.6
2018-May-09 16:00N 32°11' W 090°60'510.7
2018-May-09 15:30N 32°16' W 090°58'510.6
2018-May-09 15:00N 32°20' W 090°54'2 3.4
2018-May-09 14:30N 32°21' W 090°53'2 3.4
2018-May-09 14:00N 32°23' W 090°53'1 2.6
2018-May-09 13:30N 32°23' W 090°54'0 0.1
2018-May-09 13:00N 32°23' W 090°54'0 0.1
2018-May-09 12:30N 32°23' W 090°54'0 0.0
2018-May-09 12:00N 32°23' W 090°54'0 0.0
2018-May-09 11:30N 32°23' W 090°54'0 0.0
2018-May-09 11:00N 32°23' W 090°54'0 0.0
2018-May-09 10:30N 32°23' W 090°54'0 0.0
2018-May-09 10:00N 32°23' W 090°54'0 0.0
2018-May-09 09:30N 32°23' W 090°54'0 0.0
2018-May-09 09:00N 32°23' W 090°54'0 0.0
2018-May-09 08:30N 32°23' W 090°54'0 0.0
2018-May-09 08:00N 32°23' W 090°54'0 0.0
2018-May-09 07:30N 32°23' W 090°54'0 0.0
2018-May-09 07:00N 32°23' W 090°54'0 0.0
2018-May-09 06:30N 32°23' W 090°54'0 0.0
2018-May-09 06:00N 32°23' W 090°54'0 0.0
2018-May-09 05:30N 32°23' W 090°54'0 0.0
2018-May-09 05:00N 32°23' W 090°54'0 0.0
2018-May-09 04:30N 32°23' W 090°54'0 0.0
2018-May-09 04:00N 32°23' W 090°54'0 0.0
2018-May-09 03:30N 32°23' W 090°54'0 0.0
2018-May-09 03:00N 32°23' W 090°54'0 0.0
2018-May-09 02:30N 32°23' W 090°54'0 0.0
2018-May-09 02:00N 32°23' W 090°54'0 0.0
2018-May-09 01:30N 32°23' W 090°54'0 0.1
2018-May-09 01:00N 32°23' W 090°54'0 0.0
2018-May-09 00:30N 32°23' W 090°54'0 0.0
2018-May-09 00:00N 32°23' W 090°54'0 0.0
2018-May-08 23:30N 32°23' W 090°54'0 0.0
2018-May-08 23:00N 32°23' W 090°54'0 0.0
2018-May-08 22:30N 32°23' W 090°54'0 0.0
2018-May-08 22:00N 32°23' W 090°54'0 0.0
2018-May-08 21:30N 32°23' W 090°54'0 0.0
2018-May-08 21:00N 32°23' W 090°54'0 0.0
2018-May-08 20:30N 32°23' W 090°54'0 0.0
2018-May-08 20:00N 32°23' W 090°54'0 0.1
2018-May-08 19:30N 32°23' W 090°54'0 0.3
2018-May-08 19:00N 32°23' W 090°54'1 1.5
2018-May-08 18:30N 32°23' W 090°53'1 1.3
2018-May-08 18:00N 32°23' W 090°54'0 0.1
2018-May-08 17:30N 32°23' W 090°54'0 0.0
2018-May-08 16:59N 32°23' W 090°54'0 0.0
2018-May-08 16:30N 32°23' W 090°54'0 0.0
2018-May-08 16:00N 32°23' W 090°54'0 0.0
2018-May-08 15:28N 32°23' W 090°54'0 0.0
2018-May-08 15:00N 32°23' W 090°54'0 0.0
2018-May-08 14:30N 32°23' W 090°54'0 0.1
2018-May-08 14:00N 32°23' W 090°54'0 0.2
2018-May-08 13:30N 32°23' W 090°54'0 0.2
2018-May-08 13:01N 32°23' W 090°54'0 0.0
2018-May-08 12:30N 32°23' W 090°54'0 0.0
2018-May-08 12:01N 32°23' W 090°54'0 0.0
2018-May-08 11:31N 32°23' W 090°54'0 0.0
2018-May-08 11:00N 32°23' W 090°54'0 0.0
2018-May-08 10:30N 32°23' W 090°54'  
Track history (hours):
 
Tides and Currents Weather Stations Pressure Air Temp Water Temp Dewpoint Dewpoint Depression Visibility Wind Speed Wind Dir Waves Ship Positions

Sanderford

Last reported at 2018-May-18 10:08 UTC. Time now 2018-May-23 01:35 UTC.
Position N 30°01' W 090°47'.

Length 17 m.

Type: Towing. MMSI: 369970377.

Date/timePositionNaut miles runAvg speedWind from/ knotsBaromVisibWave heightAir tempDewpointWater temp
2018-May-18 10:08N 30°01' W 090°47'0 0.1
2018-May-18 09:54N 30°01' W 090°47'0 0.0
2018-May-18 09:27N 30°01' W 090°47'0 0.0
2018-May-18 09:00N 30°01' W 090°47'0 0.1
2018-May-18 08:21N 30°01' W 090°46'  
2018-May-09 17:31N 32°01' W 091°04'110.2
2018-May-09 17:26N 32°02' W 091°04'6 8.4
2018-May-09 16:44N 32°08' W 091°06'210.5
2018-May-09 16:30N 32°07' W 091°04'4 8.6
2018-May-09 16:00N 32°11' W 090°60'510.7
2018-May-09 15:30N 32°16' W 090°58'510.6
2018-May-09 15:00N 32°20' W 090°54'2 3.4
2018-May-09 14:30N 32°21' W 090°53'2 3.4
2018-May-09 14:00N 32°23' W 090°53'1 2.6
2018-May-09 13:30N 32°23' W 090°54'0 0.1
2018-May-09 13:00N 32°23' W 090°54'0 0.1
2018-May-09 12:30N 32°23' W 090°54'0 0.0
2018-May-09 12:00N 32°23' W 090°54'0 0.0
2018-May-09 11:30N 32°23' W 090°54'0 0.0
2018-May-09 11:00N 32°23' W 090°54'0 0.0
2018-May-09 10:30N 32°23' W 090°54'0 0.0
2018-May-09 10:00N 32°23' W 090°54'0 0.0
2018-May-09 09:30N 32°23' W 090°54'0 0.0
2018-May-09 09:00N 32°23' W 090°54'0 0.0
2018-May-09 08:30N 32°23' W 090°54'0 0.0
2018-May-09 08:00N 32°23' W 090°54'0 0.0
2018-May-09 07:30N 32°23' W 090°54'0 0.0
2018-May-09 07:00N 32°23' W 090°54'0 0.0
2018-May-09 06:30N 32°23' W 090°54'0 0.0
2018-May-09 06:00N 32°23' W 090°54'0 0.0
2018-May-09 05:30N 32°23' W 090°54'0 0.0
2018-May-09 05:00N 32°23' W 090°54'0 0.0
2018-May-09 04:30N 32°23' W 090°54'0 0.0
2018-May-09 04:00N 32°23' W 090°54'0 0.0
2018-May-09 03:30N 32°23' W 090°54'0 0.0
2018-May-09 03:00N 32°23' W 090°54'0 0.0
2018-May-09 02:30N 32°23' W 090°54'0 0.0
2018-May-09 02:00N 32°23' W 090°54'0 0.0
2018-May-09 01:30N 32°23' W 090°54'0 0.1
2018-May-09 01:00N 32°23' W 090°54'0 0.0
2018-May-09 00:30N 32°23' W 090°54'0 0.0
2018-May-09 00:00N 32°23' W 090°54'0 0.0
2018-May-08 23:30N 32°23' W 090°54'0 0.0
2018-May-08 23:00N 32°23' W 090°54'0 0.0
2018-May-08 22:30N 32°23' W 090°54'0 0.0
2018-May-08 22:00N 32°23' W 090°54'0 0.0
2018-May-08 21:30N 32°23' W 090°54'0 0.0
2018-May-08 21:00N 32°23' W 090°54'0 0.0
2018-May-08 20:30N 32°23' W 090°54'0 0.0
2018-May-08 20:00N 32°23' W 090°54'0 0.1
2018-May-08 19:30N 32°23' W 090°54'0 0.3
2018-May-08 19:00N 32°23' W 090°54'1 1.5
2018-May-08 18:30N 32°23' W 090°53'1 1.3
2018-May-08 18:00N 32°23' W 090°54'0 0.1
2018-May-08 17:30N 32°23' W 090°54'0 0.0
2018-May-08 16:59N 32°23' W 090°54'0 0.0
2018-May-08 16:30N 32°23' W 090°54'0 0.0
2018-May-08 16:00N 32°23' W 090°54'0 0.0
2018-May-08 15:28N 32°23' W 090°54'0 0.0
2018-May-08 15:00N 32°23' W 090°54'0 0.0
2018-May-08 14:30N 32°23' W 090°54'0 0.1
2018-May-08 14:00N 32°23' W 090°54'0 0.2
2018-May-08 13:30N 32°23' W 090°54'0 0.2
2018-May-08 13:01N 32°23' W 090°54'0 0.0
2018-May-08 12:30N 32°23' W 090°54'0 0.0
2018-May-08 12:01N 32°23' W 090°54'0 0.0
2018-May-08 11:31N 32°23' W 090°54'0 0.0
2018-May-08 11:00N 32°23' W 090°54'0 0.0
2018-May-08 10:30N 32°23' W 090°54'  

Dump ship's entire track history